createdAt,value
2018-07-21T04:13:25.971Z,99.90
2018-07-21T04:15:54.981Z,99.90
2018-07-21T04:18:24.016Z,99.90
2018-07-21T04:20:53.060Z,99.90
2018-07-21T04:23:22.068Z,99.90
2018-07-21T04:25:51.079Z,99.90
2018-07-21T04:28:20.140Z,99.90
2018-07-21T04:30:49.196Z,99.90
2018-07-21T04:33:18.243Z,99.90
2018-07-21T04:35:47.303Z,99.90
2018-07-21T04:38:16.348Z,99.90
2018-07-21T04:40:45.487Z,99.90
2018-07-21T04:43:14.479Z,99.90
2018-07-21T04:45:43.519Z,99.90
2018-07-21T04:48:12.555Z,99.90
2018-07-21T04:50:41.632Z,99.90
2018-07-21T04:53:10.647Z,99.90
2018-07-21T04:55:39.684Z,99.90
2018-07-21T04:58:08.704Z,99.90
2018-07-21T05:00:38.316Z,99.90
2018-07-21T05:03:07.331Z,99.90
2018-07-21T05:05:36.401Z,99.90
2018-07-21T05:08:05.439Z,99.90
2018-07-21T05:10:34.631Z,99.90
2018-07-21T05:13:03.716Z,99.90
2018-07-21T05:15:32.759Z,99.90
2018-07-21T05:18:01.837Z,99.90
2018-07-21T05:20:30.904Z,99.90
2018-07-21T05:22:59.984Z,99.90
2018-07-21T05:25:29.048Z,99.90
2018-07-21T05:27:58.065Z,99.90
2018-07-21T05:30:27.107Z,99.90
2018-07-21T05:32:56.128Z,99.90
2018-07-21T05:35:25.208Z,99.90
2018-07-21T05:37:54.663Z,99.90
2018-07-21T05:40:23.704Z,99.90
2018-07-21T05:42:52.805Z,99.90
2018-07-21T05:45:21.840Z,99.90
2018-07-21T05:50:19.553Z,99.90
2018-07-21T05:52:48.610Z,99.90
2018-07-21T05:55:17.818Z,99.90
2018-07-21T05:57:46.975Z,99.90
2018-07-21T06:00:16.041Z,99.90
2018-07-21T06:02:45.116Z,99.90
2018-07-21T06:05:14.175Z,99.90
2018-07-21T06:07:43.286Z,99.90
2018-07-21T06:10:12.390Z,99.90
2018-07-21T06:17:38.771Z,99.90
2018-07-21T06:20:07.919Z,99.90
2018-07-21T06:22:37.075Z,99.90
2018-07-21T06:25:06.187Z,99.90
2018-07-21T06:27:35.265Z,99.90
2018-07-21T06:30:05.120Z,99.90
2018-07-21T06:32:34.217Z,99.90
2018-07-21T06:35:03.419Z,99.90
2018-07-21T06:37:32.519Z,99.90
2018-07-21T06:40:01.640Z,99.90
2018-07-21T06:42:30.767Z,99.90
2018-07-21T06:45:00.439Z,99.90
2018-07-21T06:49:58.117Z,99.90
2018-07-21T06:52:27.300Z,99.90
2018-07-21T06:54:56.520Z,99.90
2018-07-21T06:57:25.724Z,99.90
2018-07-21T06:59:56.687Z,99.90
2018-07-21T07:02:26.001Z,99.90
2018-07-21T07:04:55.289Z,99.90
2018-07-21T07:07:24.613Z,99.90
2018-07-21T07:09:53.933Z,99.90
2018-07-21T07:12:23.346Z,99.90
2018-07-21T07:17:23.234Z,99.90
2018-07-21T07:19:53.069Z,99.90
2018-07-21T07:22:22.842Z,99.90
2018-07-21T07:24:52.512Z,99.90
2018-07-21T07:27:22.348Z,99.90
2018-07-21T07:29:52.971Z,99.90
2018-07-21T07:32:24.719Z,99.90
2018-07-21T07:34:54.748Z,99.90
2018-07-21T07:37:25.713Z,99.90
2018-07-21T07:39:56.408Z,99.90
2018-07-21T07:42:26.965Z,99.90
2018-07-21T07:44:57.261Z,99.90
2018-07-21T07:47:27.433Z,99.90
2018-07-21T07:49:58.240Z,99.90
2018-07-21T07:52:28.254Z,99.50
2018-07-21T07:54:58.855Z,95.90
2018-07-21T07:57:30.151Z,94.20
2018-07-21T08:00:01.263Z,94.50
2018-07-21T08:02:32.526Z,94.60
2018-07-21T08:05:02.871Z,94.10
2018-07-21T08:07:32.845Z,93.10
2018-07-21T08:10:03.575Z,92.70
2018-07-21T08:12:34.233Z,94.40
2018-07-21T08:15:03.719Z,93.90
2018-07-21T08:17:33.763Z,91.80
2018-07-21T08:20:04.240Z,91.00
2018-07-21T08:22:34.644Z,90.70
2018-07-21T08:25:04.681Z,91.20
2018-07-21T08:27:34.725Z,90.50
2018-07-21T08:30:05.573Z,89.30
2018-07-21T08:32:35.913Z,89.10
2018-07-21T08:35:06.777Z,89.60
2018-07-21T08:37:38.062Z,88.20
2018-07-21T08:40:09.404Z,87.00
2018-07-21T08:42:39.061Z,88.00
2018-07-21T08:45:09.703Z,86.80
2018-07-21T08:47:40.464Z,88.30
2018-07-21T08:50:10.514Z,87.60
2018-07-21T08:52:41.093Z,85.00
2018-07-21T08:55:11.786Z,86.40
2018-07-21T08:57:41.784Z,85.00
2018-07-21T09:00:11.685Z,83.90
2018-07-21T09:02:41.588Z,83.70
2018-07-21T09:05:11.952Z,81.10
2018-07-21T09:07:42.156Z,80.40
2018-07-21T09:10:12.667Z,78.60
2018-07-21T09:12:43.051Z,76.60
2018-07-21T09:15:12.894Z,75.40
2018-07-21T09:17:43.797Z,75.40
2018-07-21T09:20:13.761Z,74.10
2018-07-21T09:22:43.322Z,71.90
2018-07-21T09:25:14.153Z,71.30
2018-07-21T09:27:44.490Z,71.90
2018-07-21T09:30:14.238Z,71.40
2018-07-21T09:32:43.982Z,65.90
2018-07-21T09:35:14.384Z,66.50
2018-07-21T09:37:44.754Z,68.40
2018-07-21T09:40:15.307Z,66.10
2018-07-21T09:42:44.988Z,67.00
2018-07-21T09:45:14.636Z,68.70
2018-07-21T09:47:44.981Z,65.40
2018-07-21T09:50:16.105Z,66.00
2018-07-21T09:52:46.431Z,67.00
2018-07-21T09:55:17.839Z,66.10
2018-07-21T09:57:48.686Z,69.20
2018-07-21T10:00:24.956Z,66.30
2018-07-21T10:02:55.956Z,68.50
2018-07-21T10:05:28.746Z,70.10
2018-07-21T10:08:00.186Z,66.70
2018-07-21T10:10:30.966Z,67.20
2018-07-21T10:13:00.311Z,66.90
2018-07-21T10:15:30.070Z,67.90
2018-07-21T10:18:00.480Z,68.30
2018-07-21T10:20:31.129Z,68.60
2018-07-21T10:23:01.900Z,69.10
2018-07-21T10:25:36.744Z,67.30
2018-07-21T10:28:12.953Z,68.50
2018-07-21T10:30:44.235Z,67.60
2018-07-21T10:33:15.774Z,67.00
2018-07-21T10:35:47.205Z,66.50
2018-07-21T10:38:17.018Z,65.30
2018-07-21T10:40:48.657Z,67.30
2018-07-21T10:43:19.819Z,66.20
2018-07-21T10:45:50.228Z,65.50
2018-07-21T10:48:20.949Z,65.80
2018-07-21T10:50:50.627Z,66.00
2018-07-21T10:53:20.608Z,63.50
2018-07-21T10:55:51.195Z,64.10
2018-07-21T10:58:22.545Z,64.90
2018-07-21T11:00:52.987Z,63.70
2018-07-21T11:03:23.228Z,60.70
2018-07-21T11:05:54.869Z,64.60
2018-07-21T11:08:25.823Z,60.60
2018-07-21T11:10:56.140Z,61.70
2018-07-21T11:13:27.209Z,62.00
2018-07-21T11:15:57.918Z,64.00
2018-07-21T11:18:27.876Z,61.10
2018-07-21T11:20:58.698Z,61.20
2018-07-21T11:23:29.372Z,61.20
2018-07-21T11:26:00.294Z,60.90
2018-07-21T11:28:31.005Z,60.90
2018-07-21T11:31:02.128Z,60.50
2018-07-21T11:33:31.998Z,60.00
2018-07-21T11:36:02.182Z,63.60
2018-07-21T11:38:32.793Z,60.10
2018-07-21T11:41:03.174Z,59.60
2018-07-21T11:43:33.899Z,59.70
2018-07-21T11:46:04.227Z,61.40
2018-07-21T11:48:34.495Z,60.70
2018-07-21T11:51:05.249Z,60.30
2018-07-21T11:53:35.141Z,58.80
2018-07-21T11:56:05.387Z,58.50
2018-07-21T11:58:36.585Z,58.90
2018-07-21T12:01:07.272Z,59.60
2018-07-21T12:03:38.543Z,60.70
2018-07-21T12:06:08.926Z,61.40
2018-07-21T12:08:39.263Z,59.70
2018-07-21T12:11:08.935Z,58.30
2018-07-21T12:13:39.422Z,58.50
2018-07-21T12:16:09.924Z,58.80
2018-07-21T12:18:39.021Z,58.70
2018-07-21T12:21:08.092Z,58.20
2018-07-21T12:23:37.124Z,58.10
2018-07-21T12:26:06.760Z,57.30
2018-07-21T12:28:35.776Z,57.80
2018-07-21T12:31:05.185Z,58.30
2018-07-21T12:33:34.376Z,57.60
2018-07-21T12:36:03.904Z,57.70
2018-07-21T12:38:33.297Z,57.60
2018-07-21T12:41:02.744Z,56.50
2018-07-21T12:43:32.207Z,57.20
2018-07-21T12:46:01.347Z,58.10
2018-07-21T12:48:30.553Z,58.10
2018-07-21T12:53:28.495Z,55.80
2018-07-21T12:55:57.994Z,55.40
2018-07-21T12:58:27.354Z,56.10
2018-07-21T13:00:56.427Z,56.00
2018-07-21T13:03:25.472Z,54.80
2018-07-21T13:05:54.512Z,54.10
2018-07-21T13:08:23.622Z,55.10
2018-07-21T13:10:52.799Z,55.20
2018-07-21T13:13:21.900Z,54.80
2018-07-21T13:15:50.983Z,53.70
2018-07-21T13:18:20.216Z,54.90
2018-07-21T13:20:49.591Z,55.40
2018-07-21T13:23:19.572Z,53.50
2018-07-21T13:25:48.588Z,53.10
2018-07-21T13:28:17.715Z,54.40
2018-07-21T13:30:46.743Z,55.80
2018-07-21T13:33:15.800Z,55.80
2018-07-21T13:35:44.888Z,54.50
2018-07-21T13:38:13.900Z,55.10
2018-07-21T13:40:42.984Z,55.10
2018-07-21T13:43:12.395Z,53.50
2018-07-21T13:45:41.427Z,53.80
2018-07-21T13:48:10.533Z,53.40
2018-07-21T13:50:39.860Z,54.50
2018-07-21T13:53:09.315Z,54.00
2018-07-21T13:55:38.658Z,52.60
2018-07-21T13:58:10.117Z,52.80
2018-07-21T14:00:41.099Z,53.10
2018-07-21T14:03:11.601Z,53.20
2018-07-21T14:05:41.933Z,52.00
2018-07-21T14:08:12.235Z,52.90
2018-07-21T14:10:42.447Z,53.00
2018-07-21T14:13:13.059Z,52.70
2018-07-21T14:15:43.785Z,52.90
2018-07-21T14:18:12.943Z,51.10
2018-07-21T14:20:41.985Z,50.20
2018-07-21T14:23:11.065Z,50.00
2018-07-21T14:25:40.148Z,51.00
2018-07-21T14:28:09.207Z,51.50
2018-07-21T14:30:38.259Z,51.50
2018-07-21T14:33:07.420Z,51.90
2018-07-21T14:35:36.476Z,50.10
2018-07-21T14:38:05.817Z,50.20
2018-07-21T14:40:35.024Z,50.40
2018-07-21T14:43:04.197Z,50.00
2018-07-21T14:45:33.223Z,49.10
2018-07-21T14:48:02.285Z,50.10
2018-07-21T14:50:31.412Z,48.80
2018-07-21T14:53:00.460Z,48.70
2018-07-21T14:55:29.480Z,49.50
2018-07-21T14:57:58.543Z,49.90
2018-07-21T15:00:27.649Z,50.60
2018-07-21T15:02:56.771Z,50.30
2018-07-21T15:05:25.835Z,50.00
2018-07-21T15:07:54.879Z,50.80
2018-07-21T15:10:23.946Z,49.40
2018-07-21T15:12:53.032Z,50.10
2018-07-21T15:15:22.054Z,51.30
2018-07-21T15:20:19.967Z,51.50
2018-07-21T15:22:49.022Z,51.80
2018-07-21T15:25:18.072Z,49.80
2018-07-21T15:27:47.107Z,50.70
2018-07-21T15:30:16.160Z,49.90
2018-07-21T15:32:45.204Z,48.70
2018-07-21T15:35:14.247Z,48.90
2018-07-21T15:37:43.304Z,49.80
2018-07-21T15:40:12.344Z,50.00
2018-07-21T15:42:41.416Z,50.40
2018-07-21T15:45:10.513Z,48.50
2018-07-21T15:47:39.570Z,49.30
2018-07-21T15:50:08.664Z,48.50
2018-07-21T15:52:37.690Z,49.10
2018-07-21T15:55:06.808Z,48.70
2018-07-21T15:57:35.870Z,48.50
2018-07-21T16:00:05.067Z,47.70
2018-07-21T16:02:34.104Z,49.00
2018-07-21T16:05:03.670Z,48.60
2018-07-21T16:07:32.691Z,49.50
2018-07-21T16:10:01.734Z,49.80
2018-07-21T16:15:03.871Z,48.70
2018-07-21T16:17:28.730Z,47.90
2018-07-21T16:19:57.728Z,48.60
2018-07-21T16:22:26.840Z,50.00
2018-07-21T16:24:55.898Z,51.00
2018-07-21T16:27:24.907Z,50.50
2018-07-21T16:29:53.943Z,50.50
2018-07-21T16:32:22.993Z,51.90
2018-07-21T16:34:52.109Z,49.90
2018-07-21T16:37:21.312Z,50.00
2018-07-21T16:39:50.512Z,49.00
2018-07-21T16:42:19.576Z,48.40
2018-07-21T16:47:17.681Z,49.70
2018-07-21T16:49:46.768Z,50.30
2018-07-21T16:52:15.797Z,52.30
2018-07-21T16:54:44.941Z,52.10
2018-07-21T16:57:13.961Z,52.80
2018-07-21T16:59:43.052Z,51.60
2018-07-21T17:02:12.219Z,50.50
2018-07-21T17:04:41.465Z,51.30
2018-07-21T17:07:10.487Z,50.60
2018-07-21T17:09:39.645Z,51.80
2018-07-21T17:12:08.684Z,51.70
2018-07-21T17:14:37.933Z,52.40
2018-07-21T17:17:07.024Z,52.90
2018-07-21T17:19:36.073Z,52.90
2018-07-21T17:22:05.128Z,53.60
2018-07-21T17:24:34.216Z,53.00
2018-07-21T17:27:03.282Z,52.80
2018-07-21T17:29:32.353Z,53.40
2018-07-21T17:32:01.392Z,52.80
2018-07-21T17:34:30.729Z,52.90
2018-07-21T17:36:59.797Z,53.10
2018-07-21T17:39:29.038Z,54.70
2018-07-21T17:41:58.095Z,55.50
2018-07-21T17:44:27.333Z,57.00
2018-07-21T17:46:56.373Z,57.30
2018-07-21T17:49:25.500Z,55.60
2018-07-21T17:51:54.572Z,55.80
2018-07-21T17:54:23.635Z,56.50
2018-07-21T17:56:52.646Z,57.10
2018-07-21T17:59:21.744Z,57.00
2018-07-21T18:01:50.897Z,57.70
2018-07-21T18:04:20.811Z,57.60
2018-07-21T18:06:49.901Z,58.10
2018-07-21T18:09:18.944Z,58.20
2018-07-21T18:11:48.173Z,58.90
2018-07-21T18:14:17.281Z,59.00
2018-07-21T18:16:46.320Z,59.30
2018-07-21T18:19:15.333Z,60.00
2018-07-21T18:21:44.380Z,61.00
2018-07-21T18:24:13.414Z,61.20
2018-07-21T18:26:42.460Z,61.80
2018-07-21T18:29:11.539Z,63.00
2018-07-21T18:31:40.633Z,62.50
2018-07-21T18:34:10.184Z,62.70
2018-07-21T18:36:39.201Z,63.80
2018-07-21T18:39:09.898Z,64.20
2018-07-21T18:41:38.956Z,64.30
2018-07-21T18:44:08.477Z,64.50
2018-07-21T18:46:37.848Z,65.30
2018-07-21T18:49:06.921Z,65.70
2018-07-21T18:51:36.060Z,65.90
2018-07-21T18:54:05.163Z,67.50
2018-07-21T18:56:34.228Z,66.30
2018-07-21T18:59:03.256Z,67.40
2018-07-21T19:01:32.462Z,67.80
2018-07-21T19:04:01.602Z,67.90
2018-07-21T19:06:30.698Z,68.10
2018-07-21T19:09:02.556Z,68.70
2018-07-21T19:11:32.309Z,68.70
2018-07-21T19:14:01.353Z,68.70
2018-07-21T19:16:35.623Z,69.40
2018-07-21T19:19:04.694Z,69.60
2018-07-21T19:21:33.805Z,69.30
2018-07-21T19:24:02.854Z,69.70
2018-07-21T19:33:07.209Z,71.60
2018-07-21T19:38:05.061Z,72.60
2018-07-21T19:40:34.152Z,74.50
2018-07-21T19:43:03.252Z,75.10
2018-07-21T19:45:32.500Z,75.50
2018-07-21T19:50:30.286Z,76.70
2018-07-21T19:52:59.372Z,77.40
2018-07-21T19:55:28.405Z,78.10
2018-07-21T19:57:57.491Z,78.70
2018-07-21T20:00:26.528Z,79.70
2018-07-21T20:02:55.581Z,80.00
2018-07-21T20:05:24.619Z,81.30
2018-07-21T20:07:53.642Z,81.00
2018-07-21T20:10:22.740Z,81.30
2018-07-21T20:12:51.845Z,81.80
2018-07-21T20:15:20.861Z,82.90
2018-07-21T20:17:49.919Z,83.80
2018-07-21T20:20:18.980Z,84.60
2018-07-21T20:22:48.071Z,85.30
2018-07-21T20:25:17.094Z,86.40
2018-07-21T20:27:46.270Z,86.80
2018-07-21T20:30:15.735Z,86.40
2018-07-21T20:32:44.877Z,87.00
2018-07-21T20:35:13.949Z,87.20
2018-07-21T20:37:42.994Z,87.70
2018-07-21T20:40:12.081Z,88.50
2018-07-21T20:42:41.301Z,88.90
2018-07-21T20:45:10.333Z,89.60
2018-07-21T20:47:39.461Z,90.00
2018-07-21T20:52:37.305Z,90.30
2018-07-21T20:55:06.737Z,90.50
2018-07-21T21:00:05.027Z,91.20
2018-07-21T21:02:34.168Z,91.40
2018-07-21T21:05:03.517Z,91.90
2018-07-21T21:07:32.594Z,92.40
2018-07-21T21:10:01.670Z,92.70
2018-07-21T21:12:31.487Z,92.50
2018-07-21T21:15:00.656Z,93.60
2018-07-21T21:17:30.085Z,93.70
2018-07-21T21:19:59.376Z,94.10
2018-07-21T21:22:28.435Z,94.30
2018-07-21T21:24:57.832Z,94.50
2018-07-21T21:27:26.868Z,94.60
2018-07-21T21:29:55.932Z,94.80
2018-07-21T21:32:25.095Z,95.20
2018-07-21T21:34:54.184Z,95.50
2018-07-21T21:37:23.259Z,95.80
2018-07-21T21:39:52.417Z,96.10
2018-07-21T21:42:21.614Z,95.80
2018-07-21T21:44:50.724Z,96.10
2018-07-21T21:47:19.757Z,96.50
2018-07-21T21:49:48.856Z,96.60
2018-07-21T21:52:17.988Z,97.10
2018-07-21T21:54:47.412Z,97.10
2018-07-21T21:57:16.513Z,98.10
2018-07-21T21:59:45.589Z,97.70
2018-07-21T22:02:14.645Z,98.20
2018-07-21T22:04:43.960Z,98.40
2018-07-21T22:07:13.179Z,98.50
